Time;durP1;ratioP1;P1;durP2;ratioP2;P2;SDS_P1;SDS_P2;PMS_P1;PMS_P2;Temp;Humidity;BMP_temperature;BMP_pressure;BME280_temperature;BME280_humidity;BME280_pressure;Samples;Min_cycle;Max_cycle;Signal;HPM_P1;HPM_P2
2022/04/24 00:02:04;;;;;;;0.77;0.38;;;11.70;99.90;;;;;;4999059;28;20055;-75
2022/04/24 00:04:30;;;;;;;1.65;0.50;;;11.70;99.90;;;;;;5005338;28;20030;-76
2022/04/24 00:06:56;;;;;;;2.13;0.55;;;11.70;99.90;;;;;;5003677;28;20686;-75
2022/04/24 00:09:22;;;;;;;2.33;0.60;;;11.70;99.90;;;;;;5005231;28;20389;-75
2022/04/24 00:11:49;;;;;;;2.38;0.45;;;11.70;99.90;;;;;;5008439;28;20053;-75
2022/04/24 00:14:17;;;;;;;1.27;0.50;;;11.70;99.90;;;;;;5005427;28;20113;-75
2022/04/24 00:16:43;;;;;;;1.92;0.55;;;11.60;99.90;;;;;;5010061;28;20284;-75
2022/04/24 00:19:10;;;;;;;2.67;0.70;;;11.40;99.90;;;;;;4995076;28;20095;-75
2022/04/24 00:21:36;;;;;;;1.45;0.32;;;11.50;99.90;;;;;;5011145;28;20076;-75
2022/04/24 00:24:02;;;;;;;2.22;0.43;;;11.40;99.90;;;;;;5000913;28;20034;-75
2022/04/24 00:26:28;;;;;;;1.45;0.40;;;11.50;99.90;;;;;;5010949;28;20065;-75
2022/04/24 00:28:54;;;;;;;2.40;0.68;;;11.30;99.90;;;;;;5005320;28;20026;-75
2022/04/24 00:31:20;;;;;;;2.42;0.57;;;11.30;99.90;;;;;;5009503;28;20037;-76
2022/04/24 00:33:46;;;;;;;1.15;0.50;;;11.20;99.90;;;;;;5008020;28;20150;-75
2022/04/24 00:36:11;;;;;;;3.80;0.60;;;11.30;99.90;;;;;;4998890;28;20034;-75
2022/04/24 00:38:37;;;;;;;1.40;0.50;;;11.20;99.90;;;;;;5004431;28;20029;-75
2022/04/24 00:41:03;;;;;;;1.73;0.60;;;11.00;99.90;;;;;;5009153;28;20034;-75
2022/04/24 00:43:29;;;;;;;0.95;0.45;;;11.00;99.90;;;;;;5004912;28;20575;-75
2022/04/24 00:46:14;;;;;;;2.38;0.52;;;10.90;99.90;;;;;;5010781;28;20105;-75
2022/04/24 00:48:40;;;;;;;;;;;11.00;99.90;;;;;;5009338;28;20034;-75
2022/04/24 00:51:07;;;;;;;2.45;0.88;;;10.60;99.90;;;;;;5010680;28;19909;-75
2022/04/24 00:53:33;;;;;;;2.05;0.75;;;10.10;99.90;;;;;;4996287;28;20030;-75
2022/04/24 00:55:59;;;;;;;2.65;0.60;;;10.00;99.90;;;;;;5007775;28;20495;-75
2022/04/24 00:58:25;;;;;;;1.23;0.40;;;10.00;99.90;;;;;;5009154;28;20542;-75
2022/04/24 01:00:52;;;;;;;1.42;0.57;;;9.90;99.90;;;;;;5006681;28;20109;-75
2022/04/24 01:03:17;;;;;;;0.73;0.22;;;9.80;99.90;;;;;;5006797;28;20412;-75
2022/04/24 01:05:43;;;;;;;1.90;0.82;;;9.70;99.90;;;;;;5008401;28;20034;-75
2022/04/24 01:08:09;;;;;;;1.45;0.40;;;9.20;99.90;;;;;;5004429;28;20082;-75
2022/04/24 01:10:41;;;;;;;3.00;1.10;;;9.50;99.90;;;;;;4997971;28;20045;-75
2022/04/24 01:13:07;;;;;;;2.22;0.50;;;10.00;99.90;;;;;;5006504;28;20433;-75
2022/04/24 01:15:34;;;;;;;1.17;0.60;;;9.90;99.90;;;;;;5009073;28;20144;-75
2022/04/24 01:18:01;;;;;;;2.22;0.50;;;9.80;99.90;;;;;;5004697;28;20409;-75
2022/04/24 01:20:27;;;;;;;3.53;1.10;;;9.90;99.90;;;;;;5010542;28;20045;-75
2022/04/24 01:22:52;;;;;;;1.90;0.40;;;9.80;99.90;;;;;;5004513;28;20039;-75
2022/04/24 01:25:18;;;;;;;1.63;0.50;;;9.70;99.90;;;;;;5006926;28;20029;-75
2022/04/24 01:27:44;;;;;;;3.35;0.40;;;9.60;99.90;;;;;;5005796;28;20029;-74
2022/04/24 01:30:10;;;;;;;1.95;0.90;;;9.90;99.90;;;;;;5010954;28;20026;-75
2022/04/24 01:32:38;;;;;;;1.85;0.40;;;9.90;99.90;;;;;;5005482;28;20034;-75
2022/04/24 01:35:05;;;;;;;2.33;0.47;;;9.80;99.90;;;;;;5005761;28;20069;-75
2022/04/24 01:37:30;;;;;;;3.20;0.47;;;9.70;99.90;;;;;;5002783;28;20384;-75
2022/04/24 01:39:56;;;;;;;5.13;0.68;;;9.40;99.90;;;;;;5008264;28;20038;-75
2022/04/24 01:42:22;;;;;;;0.70;0.20;;;8.80;99.90;;;;;;5010285;28;20111;-75
2022/04/24 01:44:47;;;;;;;3.13;0.57;;;9.20;99.90;;;;;;5008074;28;20048;-77
2022/04/24 01:47:14;;;;;;;1.45;0.30;;;9.40;99.90;;;;;;5007481;28;20500;-75
2022/04/24 01:49:39;;;;;;;1.15;0.32;;;9.40;99.90;;;;;;4999888;28;20046;-75
2022/04/24 01:52:08;;;;;;;3.00;0.77;;;9.50;99.90;;;;;;5010537;28;20033;-75
2022/04/24 01:54:35;;;;;;;2.47;0.70;;;9.70;99.90;;;;;;4999835;28;20116;-77
2022/04/24 01:57:00;;;;;;;1.20;0.45;;;9.80;99.90;;;;;;5005953;28;20422;-75
2022/04/24 01:59:26;;;;;;;1.60;0.55;;;9.90;99.90;;;;;;5008933;28;20089;-77
2022/04/24 02:01:52;;;;;;;2.42;0.50;;;9.90;99.90;;;;;;5011050;28;20076;-77
2022/04/24 02:04:24;;;;;;;1.52;0.30;;;9.30;99.90;;;;;;5011944;28;20144;-77
2022/04/24 02:06:50;;;;;;;1.38;0.40;;;9.20;99.90;;;;;;5011158;28;20110;-76
2022/04/24 02:09:16;;;;;;;3.28;0.47;;;9.30;99.90;;;;;;5013237;28;20068;-77
2022/04/24 02:11:41;;;;;;;1.55;0.70;;;9.40;99.90;;;;;;5008960;28;20065;-75
2022/04/24 02:14:07;;;;;;;3.92;1.05;;;9.70;99.90;;;;;;5004147;28;20384;-75
2022/04/24 02:16:33;;;;;;;1.73;0.60;;;9.60;99.90;;;;;;5011657;28;20029;-75
2022/04/24 02:18:59;;;;;;;1.92;0.63;;;9.40;99.90;;;;;;5012779;28;20045;-77
2022/04/24 02:21:25;;;;;;;2.25;0.95;;;9.30;99.90;;;;;;5008583;28;20075;-75
2022/04/24 02:23:51;;;;;;;1.63;0.30;;;9.40;99.90;;;;;;5013563;28;20037;-75
2022/04/24 02:26:17;;;;;;;4.18;0.93;;;9.50;99.90;;;;;;5003395;28;20038;-75
2022/04/24 02:28:43;;;;;;;0.45;0.30;;;9.50;99.90;;;;;;5013379;28;20041;-75
2022/04/24 02:31:08;;;;;;;1.08;0.50;;;9.50;99.90;;;;;;5006051;28;20081;-77
2022/04/24 02:33:34;;;;;;;1.55;0.50;;;9.80;99.90;;;;;;5009553;28;20038;-77
2022/04/24 02:36:00;;;;;;;1.80;0.50;;;9.80;99.90;;;;;;5000836;28;20034;-77
2022/04/24 02:38:26;;;;;;;2.20;0.70;;;10.10;99.90;;;;;;4997545;28;20479;-76
2022/04/24 02:40:51;;;;;;;1.67;0.38;;;9.90;99.90;;;;;;5002506;28;20030;-75
2022/04/24 02:43:17;;;;;;;0.52;0.25;;;9.70;99.90;;;;;;5011394;28;20136;-77
2022/04/24 02:45:43;;;;;;;4.82;0.50;;;9.50;99.90;;;;;;5011131;28;20377;-75
2022/04/24 02:48:09;;;;;;;1.02;0.43;;;9.40;99.90;;;;;;5011349;28;20033;-75
2022/04/24 02:50:35;;;;;;;1.40;0.52;;;9.50;99.90;;;;;;5006001;28;20030;-78
2022/04/24 02:53:01;;;;;;;1.85;0.40;;;10.00;99.90;;;;;;5008201;28;20029;-75
2022/04/24 02:55:26;;;;;;;3.33;0.68;;;10.00;99.90;;;;;;5008311;28;20033;-75
2022/04/24 02:57:53;;;;;;;1.85;0.32;;;9.90;99.90;;;;;;5008612;28;20034;-75
2022/04/24 03:00:22;;;;;;;1.92;0.50;;;9.80;99.90;;;;;;5008665;28;20077;-74
2022/04/24 03:02:49;;;;;;;1.60;0.45;;;9.90;99.90;;;;;;5007808;28;20982;-75
2022/04/24 03:05:19;;;;;;;2.15;0.50;;;10.00;99.90;;;;;;4999989;28;20454;-75
2022/04/24 03:07:46;;;;;;;3.40;1.42;;;10.00;99.90;;;;;;5004098;28;20042;-74
2022/04/24 03:10:12;;;;;;;1.58;0.80;;;10.00;99.90;;;;;;5001588;28;20045;-74
2022/04/24 03:12:39;;;;;;;1.90;0.70;;;9.80;99.90;;;;;;5006436;28;20412;-75
2022/04/24 03:15:06;;;;;;;1.33;0.50;;;9.80;99.90;;;;;;5005797;28;20460;-74
2022/04/24 03:17:32;;;;;;;4.20;0.88;;;9.80;99.90;;;;;;5000942;28;20049;-74
2022/04/24 03:19:59;;;;;;;3.92;1.02;;;9.70;99.90;;;;;;4997698;28;20030;-75
2022/04/24 03:22:26;;;;;;;2.60;0.80;;;9.50;99.90;;;;;;4993409;28;20046;-74
2022/04/24 03:24:52;;;;;;;4.20;0.98;;;9.40;99.90;;;;;;5004816;28;20068;-74
2022/04/24 03:27:17;;;;;;;3.10;1.17;;;9.20;99.90;;;;;;5001625;28;20042;-76
2022/04/24 03:29:43;;;;;;;0.68;0.40;;;9.20;99.90;;;;;;5005355;28;20033;-74
2022/04/24 03:32:09;;;;;;;1.17;0.50;;;9.00;99.90;;;;;;5000015;28;20146;-74
2022/04/24 03:34:37;;;;;;;1.08;0.40;;;9.10;99.90;;;;;;5005358;28;20631;-74
2022/04/24 03:37:03;;;;;;;1.83;0.65;;;9.10;99.90;;;;;;4991665;28;20495;-75
2022/04/24 03:39:29;;;;;;;1.52;0.50;;;9.10;99.90;;;;;;5003362;28;20038;-74
2022/04/24 03:41:55;;;;;;;0.90;0.20;;;9.20;99.90;;;;;;5004741;28;20374;-75
2022/04/24 03:44:20;;;;;;;1.38;0.40;;;9.00;99.90;;;;;;5006827;28;20107;-74
2022/04/24 03:46:46;;;;;;;2.90;0.30;;;9.00;99.90;;;;;;5002203;28;20033;-75
2022/04/24 03:49:12;;;;;;;3.97;0.75;;;9.00;99.90;;;;;;5005937;28;20034;-74
2022/04/24 03:51:37;;;;;;;0.60;0.20;;;9.00;99.90;;;;;;5005920;28;20057;-75
2022/04/24 03:54:03;;;;;;;2.55;0.43;;;9.00;99.90;;;;;;5007790;28;20037;-75
2022/04/24 03:56:31;;;;;;;1.98;0.60;;;8.80;99.90;;;;;;5005695;28;20140;-74
2022/04/24 03:58:58;;;;;;;0.98;0.25;;;8.90;99.90;;;;;;4998955;28;20041;-74
2022/04/24 04:01:24;;;;;;;1.02;0.30;;;8.60;99.90;;;;;;4996893;28;20041;-76
2022/04/24 04:03:53;;;;;;;4.75;0.63;;;8.60;99.90;;;;;;4998780;28;20096;-76
2022/04/24 04:06:19;;;;;;;2.53;0.45;;;8.50;99.90;;;;;;4997514;28;20632;-75
2022/04/24 04:08:45;;;;;;;1.83;1.10;;;8.50;99.90;;;;;;4998970;28;20025;-74
2022/04/24 04:11:12;;;;;;;0.82;0.30;;;8.70;99.90;;;;;;4998963;28;20942;-74
2022/04/24 04:13:38;;;;;;;0.63;0.22;;;8.70;99.90;;;;;;5003613;28;20022;-75
2022/04/24 04:16:03;;;;;;;1.25;0.30;;;8.30;99.90;;;;;;5001215;28;20597;-75
2022/04/24 04:18:29;;;;;;;1.30;0.30;;;8.50;99.90;;;;;;4995065;28;20420;-76
2022/04/24 04:20:55;;;;;;;0.75;0.15;;;8.70;99.90;;;;;;5002124;28;20041;-75
2022/04/24 04:23:20;;;;;;;2.95;0.35;;;8.80;99.90;;;;;;4999983;28;20104;-75
2022/04/24 04:25:46;;;;;;;3.28;0.57;;;8.80;99.90;;;;;;5000531;28;20035;-74
2022/04/24 04:28:12;;;;;;;0.65;0.22;;;8.90;99.90;;;;;;4999013;28;20108;-75
2022/04/24 04:30:37;;;;;;;0.57;0.20;;;8.80;99.90;;;;;;4995965;28;20038;-74
2022/04/24 04:33:03;;;;;;;0.60;0.30;;;9.00;99.90;;;;;;4999430;28;20063;-75
2022/04/24 04:35:29;;;;;;;3.53;0.50;;;8.60;99.90;;;;;;4984623;28;20037;-75
2022/04/24 04:37:54;;;;;;;0.55;0.32;;;8.30;99.90;;;;;;4985786;28;20036;-74
2022/04/24 04:40:23;;;;;;;0.73;0.30;;;8.30;99.90;;;;;;4994858;28;20159;-74
2022/04/24 04:42:49;;;;;;;0.57;0.15;;;8.30;99.90;;;;;;5000262;28;20057;-74
2022/04/24 04:45:16;;;;;;;3.50;0.50;;;8.00;99.90;;;;;;5003000;28;20037;-76
2022/04/24 04:47:41;;;;;;;1.65;0.45;;;7.90;99.90;;;;;;4993988;28;20181;-76
2022/04/24 04:50:08;;;;;;;2.20;0.35;;;8.10;99.90;;;;;;5002387;28;20109;-76
2022/04/24 04:52:34;;;;;;;0.63;0.30;;;8.30;99.90;;;;;;4997011;28;20037;-74
2022/04/24 04:55:01;;;;;;;0.60;0.25;;;8.20;99.90;;;;;;4993093;28;20030;-74
2022/04/24 04:57:27;;;;;;;1.25;0.25;;;8.00;99.90;;;;;;4996430;28;20108;-74
2022/04/24 04:59:53;;;;;;;3.45;0.70;;;8.00;99.90;;;;;;5002537;28;20073;-74
2022/04/24 05:02:18;;;;;;;0.75;0.30;;;8.10;99.90;;;;;;4997629;28;20084;-74
2022/04/24 05:04:44;;;;;;;0.63;0.30;;;8.10;99.90;;;;;;4998698;28;20424;-74
2022/04/24 05:07:11;;;;;;;0.60;0.30;;;7.90;99.90;;;;;;5000917;28;20718;-74
2022/04/24 05:09:37;;;;;;;1.48;0.60;;;8.00;99.90;;;;;;5000269;28;20030;-74
2022/04/24 05:12:04;;;;;;;1.88;0.47;;;8.10;99.90;;;;;;5001551;28;20595;-74
2022/04/24 05:14:30;;;;;;;0.77;0.35;;;8.20;99.90;;;;;;4993588;28;20517;-74
2022/04/24 05:16:56;;;;;;;0.95;0.40;;;8.30;99.90;;;;;;5001201;28;20033;-74
2022/04/24 05:19:23;;;;;;;3.92;0.73;;;8.30;99.90;;;;;;4995474;28;20092;-74
2022/04/24 05:21:49;;;;;;;1.10;0.35;;;8.20;99.90;;;;;;5001375;28;20029;-74
2022/04/24 05:24:14;;;;;;;1.15;0.47;;;8.20;99.90;;;;;;5002446;28;20048;-74
2022/04/24 05:26:40;;;;;;;2.85;0.63;;;8.20;99.90;;;;;;4991400;28;20118;-74
2022/04/24 05:29:07;;;;;;;2.95;0.70;;;8.30;99.90;;;;;;5004773;28;20033;-75
2022/04/24 05:31:33;;;;;;;2.95;0.50;;;8.40;99.90;;;;;;4998213;28;20045;-74
2022/04/24 05:33:59;;;;;;;0.68;0.20;;;8.30;99.90;;;;;;5006028;28;20120;-74
2022/04/24 05:36:25;;;;;;;1.30;0.60;;;8.40;99.90;;;;;;4998660;28;20038;-75
2022/04/24 05:38:51;;;;;;;1.98;0.60;;;8.50;99.90;;;;;;5006658;28;20029;-74
2022/04/24 05:41:16;;;;;;;1.45;0.47;;;8.40;99.90;;;;;;4997702;28;20037;-74
2022/04/24 05:43:42;;;;;;;2.88;0.50;;;8.60;99.90;;;;;;5001256;28;20038;-75
2022/04/24 05:46:08;;;;;;;1.17;0.50;;;8.70;99.90;;;;;;4996669;28;20093;-74
2022/04/24 05:48:33;;;;;;;2.55;0.60;;;8.80;99.90;;;;;;5006066;28;20573;-74
2022/04/24 05:51:00;;;;;;;2.28;0.60;;;8.70;99.90;;;;;;4999046;28;20372;-74
2022/04/24 05:53:26;;;;;;;0.85;0.30;;;8.90;99.90;;;;;;5006103;28;20040;-74
2022/04/24 05:55:51;;;;;;;1.35;0.30;;;8.80;99.90;;;;;;5001663;28;20030;-75
2022/04/24 05:58:17;;;;;;;3.00;1.33;;;9.00;99.90;;;;;;5003407;28;20837;-74
2022/04/24 06:00:43;;;;;;;2.00;0.80;;;9.20;99.90;;;;;;4997201;28;20053;-75
2022/04/24 06:03:09;;;;;;;1.77;1.00;;;9.30;99.90;;;;;;5000395;28;20046;-76
2022/04/24 06:05:34;;;;;;;2.65;0.30;;;9.20;99.90;;;;;;4991389;28;20168;-75
2022/04/24 06:08:00;;;;;;;3.28;1.58;;;9.20;99.90;;;;;;5002375;28;20109;-74
2022/04/24 06:10:26;;;;;;;0.52;0.40;;;9.30;99.90;;;;;;4997022;28;20129;-75
2022/04/24 06:12:56;;;;;;;2.20;0.57;;;9.40;99.90;;;;;;5003735;28;20120;-75
2022/04/24 06:15:25;;;;;;;1.60;0.50;;;9.50;99.90;;;;;;4994277;28;20045;-74
2022/04/24 06:17:53;;;;;;;1.80;0.35;;;9.50;99.90;;;;;;5000544;28;20036;-74
2022/04/24 06:20:20;;;;;;;2.42;1.00;;;9.50;99.90;;;;;;4997086;28;20048;-74
2022/04/24 06:22:54;;;;;;;2.28;0.50;;;9.50;99.90;;;;;;5003917;28;20041;-75
2022/04/24 06:25:31;;;;;;;6.53;2.50;;;9.50;99.90;;;;;;5002795;28;20033;-75
2022/04/24 06:27:57;;;;;;;2.55;1.13;;;9.40;99.90;;;;;;5001561;28;20026;-74
2022/04/24 06:30:25;;;;;;;6.57;3.05;;;9.50;99.90;;;;;;4998472;28;20085;-74
2022/04/24 06:32:51;;;;;;;1.25;0.50;;;9.40;99.90;;;;;;4986918;28;20044;-75
2022/04/24 06:35:18;;;;;;;1.40;0.68;;;9.30;99.90;;;;;;5000602;28;20062;-74
2022/04/24 06:37:45;;;;;;;2.05;0.47;;;9.30;99.90;;;;;;5002457;28;20053;-74
2022/04/24 06:40:13;;;;;;;0.90;0.35;;;9.30;99.90;;;;;;5003183;28;20157;-74
2022/04/24 06:42:51;;;;;;;4.25;1.05;;;9.40;99.90;;;;;;5004088;28;20054;-75
2022/04/24 06:45:22;;;;;;;1.15;0.50;;;9.60;99.90;;;;;;5003826;28;20362;-74
2022/04/24 06:47:48;;;;;;;1.58;0.73;;;9.60;99.90;;;;;;5003031;28;20041;-73
2022/04/24 06:50:13;;;;;;;3.67;1.95;;;9.60;99.90;;;;;;4995904;28;20575;-74
2022/04/24 06:52:39;;;;;;;5.68;4.20;;;9.70;99.90;;;;;;5000886;28;20113;-74
2022/04/24 06:55:06;;;;;;;1.90;0.90;;;9.70;99.90;;;;;;4998735;28;21043;-74
2022/04/24 06:57:33;;;;;;;3.15;1.13;;;9.80;99.90;;;;;;5003714;28;20038;-75
2022/04/24 06:59:58;;;;;;;3.05;1.00;;;9.80;99.90;;;;;;4999873;28;20026;-75
2022/04/24 07:02:24;;;;;;;3.03;0.95;;;9.90;99.90;;;;;;5004883;28;20518;-76
2022/04/24 07:04:50;;;;;;;0.40;0.40;;;10.00;99.90;;;;;;5003077;28;20746;-76
2022/04/24 07:07:15;;;;;;;1.77;0.93;;;10.00;99.90;;;;;;4994208;28;20552;-76
2022/04/24 07:09:41;;;;;;;1.20;0.38;;;10.10;99.90;;;;;;5002110;28;20488;-75
2022/04/24 07:12:08;;;;;;;9.63;5.00;;;10.30;99.90;;;;;;5003605;28;20045;-75
2022/04/24 07:14:33;;;;;;;2.25;1.02;;;10.40;99.90;;;;;;4999169;28;20409;-75
2022/04/24 07:16:59;;;;;;;3.70;1.25;;;10.60;99.90;;;;;;4999524;28;20028;-74
2022/04/24 07:19:24;;;;;;;1.92;0.90;;;10.70;99.90;;;;;;4999329;28;20037;-75
2022/04/24 07:21:50;;;;;;;9.18;7.05;;;10.50;99.90;;;;;;5001287;28;20116;-74
2022/04/24 07:24:16;;;;;;;6.90;5.45;;;10.50;99.90;;;;;;5004031;28;20038;-75
2022/04/24 07:26:42;;;;;;;3.90;2.10;;;10.40;99.90;;;;;;5003860;28;20033;-73
2022/04/24 07:29:08;;;;;;;3.35;1.27;;;10.60;99.90;;;;;;5000031;28;20038;-74
2022/04/24 07:31:33;;;;;;;1.05;0.52;;;10.50;99.90;;;;;;5001325;28;20034;-73
2022/04/24 07:33:59;;;;;;;0.50;0.10;;;10.50;99.90;;;;;;5000547;28;20374;-74
2022/04/24 07:36:25;;;;;;;0.55;0.20;;;10.30;99.90;;;;;;5004116;28;20042;-73
2022/04/24 07:38:50;;;;;;;0.40;0.13;;;10.20;99.90;;;;;;4996650;28;20030;-73
2022/04/24 07:41:17;;;;;;;2.88;1.80;;;10.30;99.90;;;;;;4995710;28;20027;-73
2022/04/24 07:43:48;;;;;;;0.10;0.10;;;10.50;99.90;;;;;;4993751;28;20531;-73
2022/04/24 07:46:15;;;;;;;1.77;0.28;;;10.40;99.90;;;;;;4998408;28;20587;-74
2022/04/24 07:48:41;;;;;;;2.22;0.30;;;10.40;99.90;;;;;;4997437;28;20042;-74
2022/04/24 07:51:06;;;;;;;1.75;0.22;;;10.40;99.90;;;;;;4993450;28;20086;-73
2022/04/24 07:53:32;;;;;;;1.13;0.32;;;10.40;99.90;;;;;;5003067;28;20038;-74
2022/04/24 07:55:58;;;;;;;0.40;0.10;;;10.40;99.90;;;;;;5002487;28;20041;-73
2022/04/24 07:58:23;;;;;;;2.17;0.13;;;10.50;99.90;;;;;;5001352;28;20026;-73
2022/04/24 08:00:49;;;;;;;0.75;0.30;;;10.60;99.90;;;;;;4998459;28;20666;-73
2022/04/24 08:03:16;;;;;;;0.50;0.30;;;10.70;99.90;;;;;;5003185;28;20080;-73
2022/04/24 08:05:47;;;;;;;1.98;0.93;;;10.60;99.90;;;;;;4997803;28;20110;-73
2022/04/24 08:08:15;;;;;;;0.10;0.00;;;10.60;99.90;;;;;;5004133;28;20465;-73
2022/04/24 08:10:42;;;;;;;0.43;0.30;;;10.50;99.90;;;;;;4991009;28;20030;-74
2022/04/24 08:13:09;;;;;;;1.42;0.75;;;10.60;99.90;;;;;;5000292;28;20562;-73
2022/04/24 08:15:35;;;;;;;0.77;0.20;;;10.80;99.90;;;;;;4995521;28;20042;-73
2022/04/24 08:18:02;;;;;;;1.05;0.43;;;11.00;99.90;;;;;;5000674;28;20042;-73
2022/04/24 08:20:28;;;;;;;0.98;0.20;;;11.20;99.90;;;;;;4995594;28;20058;-73
2022/04/24 08:22:55;;;;;;;3.00;0.73;;;11.50;99.90;;;;;;5001830;28;20057;-73
2022/04/24 08:25:24;;;;;;;0.57;0.20;;;11.80;99.90;;;;;;4992009;28;20112;-73
2022/04/24 08:27:51;;;;;;;0.93;0.60;;;12.00;99.90;;;;;;4998573;28;20037;-73
2022/04/24 08:30:18;;;;;;;2.05;0.95;;;12.00;99.90;;;;;;5000746;28;20034;-73
2022/04/24 08:32:45;;;;;;;0.70;0.17;;;12.10;99.90;;;;;;4999216;28;20492;-73
2022/04/24 08:35:12;;;;;;;0.35;0.35;;;12.30;99.90;;;;;;5001828;28;20085;-73
2022/04/24 08:37:38;;;;;;;0.88;0.35;;;12.20;99.60;;;;;;4997121;28;20058;-73
2022/04/24 08:40:06;;;;;;;0.20;0.10;;;12.10;99.80;;;;;;4999599;28;20025;-74
2022/04/24 08:42:33;;;;;;;2.33;0.70;;;12.10;99.90;;;;;;4999078;28;20532;-74
2022/04/24 08:44:59;;;;;;;1.95;0.20;;;12.00;99.40;;;;;;5002043;28;20026;-73
2022/04/24 08:47:26;;;;;;;1.55;0.32;;;11.90;98.90;;;;;;5000375;28;20033;-73
2022/04/24 08:49:57;;;;;;;0.75;0.35;;;11.90;99.90;;;;;;4993237;28;20037;-73
2022/04/24 08:52:23;;;;;;;1.50;0.52;;;11.90;99.90;;;;;;4994943;28;20096;-74
2022/04/24 08:54:51;;;;;;;2.35;0.80;;;11.90;99.90;;;;;;5002182;28;20395;-74
2022/04/24 08:57:17;;;;;;;1.77;0.65;;;11.80;99.90;;;;;;5001876;28;20042;-74
2022/04/24 08:59:43;;;;;;;3.40;0.55;;;11.80;99.90;;;;;;5001220;28;20037;-73
2022/04/24 09:02:10;;;;;;;1.05;0.35;;;11.90;99.90;;;;;;4988598;28;20121;-73
2022/04/24 09:04:37;;;;;;;1.52;0.63;;;11.80;99.90;;;;;;4991497;28;20344;-74
2022/04/24 09:07:05;;;;;;;2.53;0.85;;;11.80;99.90;;;;;;4988399;28;20065;-75
2022/04/24 09:09:42;;;;;;;2.28;0.77;;;11.70;99.90;;;;;;4998563;28;20030;-75
2022/04/24 09:12:21;;;;;;;3.83;0.60;;;11.50;99.90;;;;;;4995922;28;20125;-75
2022/04/24 09:14:57;;;;;;;5.25;1.90;;;11.30;99.90;;;;;;4997012;28;20038;-74
2022/04/24 09:17:29;;;;;;;13.23;7.68;;;11.20;99.90;;;;;;4994987;28;20047;-74
2022/04/24 09:19:56;;;;;;;5.95;3.13;;;11.20;99.90;;;;;;4989866;28;20031;-74
2022/04/24 09:22:23;;;;;;;3.60;1.60;;;11.30;99.90;;;;;;4999522;28;20034;-74
2022/04/24 09:24:49;;;;;;;54.65;34.83;;;11.30;99.90;;;;;;4994159;28;20448;-72
2022/04/24 09:27:35;;;;;;;53.92;37.10;;;11.30;99.90;;;;;;4987794;28;20045;-74
2022/04/24 09:30:12;;;;;;;14.85;10.00;;;11.30;99.90;;;;;;4994766;28;20159;-75
2022/04/24 09:32:52;;;;;;;5.32;3.08;;;11.40;99.90;;;;;;4991607;28;20053;-73
2022/04/24 09:35:27;;;;;;;14.63;10.00;;;11.50;99.90;;;;;;4988979;28;20123;-73
2022/04/24 09:38:08;;;;;;;9.90;6.35;;;11.50;99.90;;;;;;4984287;28;20058;-72
2022/04/24 09:40:52;;;;;;;3.63;1.42;;;11.40;99.90;;;;;;4988889;28;20056;-74
2022/04/24 09:43:19;;;;;;;4.65;2.28;;;11.30;99.90;;;;;;4965964;28;20052;-75
2022/04/24 09:45:50;;;;;;;10.88;7.05;;;11.20;99.90;;;;;;4972701;28;20021;-72
2022/04/24 09:48:18;;;;;;;6.88;3.50;;;11.20;99.90;;;;;;4983802;28;20048;-73
2022/04/24 09:50:44;;;;;;;1.98;0.85;;;11.30;99.90;;;;;;4979999;28;20034;-72
2022/04/24 09:53:14;;;;;;;19.65;11.63;;;11.40;99.90;;;;;;4978549;28;20030;-72
2022/04/24 09:55:43;;;;;;;10.57;5.00;;;11.60;99.90;;;;;;4973226;28;20600;-73
2022/04/24 09:58:10;;;;;;;12.93;7.50;;;11.60;99.90;;;;;;4992696;28;20030;-73
2022/04/24 10:00:36;;;;;;;8.80;3.78;;;11.50;99.90;;;;;;4992055;28;20084;-72
2022/04/24 10:03:03;;;;;;;15.50;8.98;;;11.40;99.90;;;;;;4995365;28;20076;-71
2022/04/24 10:05:30;;;;;;;8.30;5.00;;;11.40;99.90;;;;;;4988764;28;20038;-72
2022/04/24 10:07:56;;;;;;;11.98;5.50;;;11.30;99.90;;;;;;4994682;28;20140;-73
2022/04/24 10:10:22;;;;;;;15.98;9.05;;;11.40;99.90;;;;;;4992537;28;20428;-74
2022/04/24 10:12:50;;;;;;;39.80;22.27;;;11.40;99.90;;;;;;4995795;28;20026;-73
2022/04/24 10:15:18;;;;;;;22.45;11.68;;;11.60;99.90;;;;;;4990166;28;20084;-73
2022/04/24 10:17:47;;;;;;;62.10;36.10;;;11.50;99.90;;;;;;4999503;28;20551;-72
2022/04/24 10:20:28;;;;;;;40.92;21.75;;;11.20;99.90;;;;;;4998921;28;20137;-71
2022/04/24 10:22:55;;;;;;;29.30;15.32;;;11.00;99.90;;;;;;5004894;28;20088;-73
2022/04/24 10:25:38;;;;;;;40.30;22.25;;;11.10;99.90;;;;;;5002280;28;20061;-73
2022/04/24 10:28:17;;;;;;;29.02;14.57;;;11.20;99.90;;;;;;5004012;28;20033;-72
2022/04/24 10:30:47;;;;;;;23.65;12.43;;;11.10;99.90;;;;;;4994730;28;20109;-72
2022/04/24 10:33:18;;;;;;;17.67;12.07;;;11.10;99.90;;;;;;4999021;28;20030;-72
2022/04/24 10:35:52;;;;;;;14.85;10.07;;;11.30;99.90;;;;;;4993545;28;20416;-73
2022/04/24 10:38:19;;;;;;;31.95;19.23;;;11.30;99.90;;;;;;4997107;28;20111;-72
2022/04/24 10:41:16;;;;;;;22.45;19.98;;;11.30;99.90;;;;;;4996850;28;20034;-72
2022/04/24 10:43:48;;;;;;;3.63;2.83;;;11.40;99.90;;;;;;4997867;28;20042;-73
2022/04/24 10:46:24;;;;;;;9.18;5.70;;;11.50;99.90;;;;;;4993756;28;20034;-74
2022/04/24 10:48:50;;;;;;;2.25;1.35;;;11.60;99.90;;;;;;4989986;28;20519;-73
2022/04/24 10:51:30;;;;;;;3.17;1.40;;;11.40;99.90;;;;;;5002102;28;20034;-74
2022/04/24 10:53:58;;;;;;;0.63;0.30;;;11.50;99.90;;;;;;5001406;28;20030;-73
2022/04/24 10:56:25;;;;;;;1.02;0.28;;;11.30;99.90;;;;;;4997636;28;20526;-74
2022/04/24 10:58:51;;;;;;;1.38;0.90;;;11.80;99.90;;;;;;4995227;28;20033;-73
2022/04/24 11:01:17;;;;;;;4.28;1.40;;;12.30;99.90;;;;;;4994929;28;20068;-72
2022/04/24 11:03:45;;;;;;;3.55;1.42;;;12.50;99.90;;;;;;4998651;28;20038;-72
2022/04/24 11:06:24;;;;;;;5.57;2.28;;;13.00;99.90;;;;;;5000366;28;20072;-72
2022/04/24 11:08:51;;;;;;;1.92;0.77;;;13.30;99.90;;;;;;4994933;28;20358;-73
2022/04/24 11:11:20;;;;;;;4.40;2.53;;;13.30;99.90;;;;;;5004176;28;20030;-73
2022/04/24 11:13:46;;;;;;;3.15;1.25;;;13.50;99.90;;;;;;4997632;28;20023;-74
2022/04/24 11:16:12;;;;;;;0.52;0.30;;;13.20;99.90;;;;;;4998586;28;20041;-74
2022/04/24 11:18:44;;;;;;;6.28;2.65;;;12.90;99.90;;;;;;4997988;28;20034;-73
2022/04/24 11:21:10;;;;;;;35.08;20.70;;;13.30;99.90;;;;;;4998703;28;20042;-74
2022/04/24 11:23:38;;;;;;;6.82;3.60;;;13.80;99.90;;;;;;4994198;28;20046;-74
2022/04/24 11:26:09;;;;;;;3.97;2.00;;;13.80;99.90;;;;;;4997516;28;20113;-74
2022/04/24 11:28:39;;;;;;;4.38;3.25;;;13.60;99.90;;;;;;5001906;28;20392;-73
2022/04/24 11:31:21;;;;;;;6.75;2.25;;;13.40;99.80;;;;;;4999213;28;20495;-73
2022/04/24 11:33:56;;;;;;;4.18;3.10;;;13.30;99.90;;;;;;5005101;28;20034;-73
2022/04/24 11:36:24;;;;;;;2.90;1.55;;;13.00;99.40;;;;;;4994208;28;20040;-73
2022/04/24 11:38:51;;;;;;;3.33;0.80;;;13.00;99.20;;;;;;4997002;28;20556;-73
2022/04/24 11:41:19;;;;;;;2.50;0.95;;;12.70;99.50;;;;;;5000404;28;20032;-73
2022/04/24 11:43:44;;;;;;;0.95;0.30;;;12.80;99.90;;;;;;4998837;28;20169;-73
2022/04/24 11:51:40;;;;;;;;;;;13.00;99.90;;;;;;4991539;28;20052;-74
2022/04/24 11:54:15;;;;;;;2.03;0.95;;;13.00;99.90;;;;;;4994380;28;19910;-73
2022/04/24 11:56:41;;;;;;;1.58;0.88;;;13.00;99.60;;;;;;4998619;28;20445;-73
2022/04/24 11:59:14;;;;;;;1.13;0.30;;;13.30;99.20;;;;;;4993587;28;20049;-73
2022/04/24 12:01:41;;;;;;;3.15;1.33;;;13.00;97.70;;;;;;4988691;28;20045;-74
2022/04/24 12:04:08;;;;;;;5.40;1.70;;;13.10;99.30;;;;;;4997167;28;20566;-74
2022/04/24 12:06:34;;;;;;;2.35;1.10;;;13.30;99.90;;;;;;4993472;28;20053;-74
2022/04/24 12:09:07;;;;;;;2.55;1.00;;;13.20;98.70;;;;;;4993750;28;20034;-74
2022/04/24 12:11:35;;;;;;;2.15;1.10;;;13.70;99.90;;;;;;4988083;28;20037;-74
2022/04/24 12:14:10;;;;;;;4.70;2.35;;;13.60;99.90;;;;;;4988090;28;20473;-75
2022/04/24 12:16:38;;;;;;;4.07;2.10;;;13.20;98.60;;;;;;4995372;28;20033;-72
2022/04/24 12:19:04;;;;;;;3.78;1.77;;;13.00;99.50;;;;;;5000567;28;20094;-72
2022/04/24 12:21:31;;;;;;;2.65;1.40;;;12.90;98.50;;;;;;5000788;28;20034;-72
2022/04/24 12:23:58;;;;;;;4.05;2.40;;;13.00;99.20;;;;;;4994715;28;20547;-72
2022/04/24 12:26:24;;;;;;;7.47;4.10;;;13.10;98.70;;;;;;5000908;28;20595;-72
2022/04/24 12:28:50;;;;;;;10.13;6.43;;;13.40;99.00;;;;;;4991920;28;20619;-72
2022/04/24 12:31:24;;;;;;;7.93;5.40;;;13.90;99.00;;;;;;4992584;28;20041;-72
2022/04/24 12:33:53;;;;;;;4.03;2.20;;;14.10;98.70;;;;;;4994946;28;20031;-72
2022/04/24 12:36:19;;;;;;;3.35;2.00;;;13.60;98.40;;;;;;4994075;28;20050;-72
2022/04/24 12:38:58;;;;;;;3.88;1.42;;;13.40;98.70;;;;;;4994971;28;21804;-73
2022/04/24 12:41:26;;;;;;;42.33;25.92;;;13.60;98.70;;;;;;4998388;28;20061;-72
2022/04/24 12:43:53;;;;;;;36.97;23.02;;;13.50;98.00;;;;;;4996402;28;20042;-72
2022/04/24 12:46:19;;;;;;;115.32;75.13;;;13.40;98.70;;;;;;4996295;28;20060;-73
2022/04/24 12:48:50;;;;;;;60.63;38.20;;;13.10;98.60;;;;;;4988992;28;20060;-72
2022/04/24 12:51:17;;;;;;;50.20;31.30;;;13.10;99.00;;;;;;4992325;28;20602;-72
2022/04/24 12:53:43;;;;;;;83.00;55.70;;;13.10;99.50;;;;;;4994139;28;20072;-72
2022/04/24 12:56:09;;;;;;;50.10;31.45;;;12.90;98.80;;;;;;4994322;28;20093;-72
2022/04/24 12:58:35;;;;;;;12.60;10.10;;;12.90;99.30;;;;;;4994929;28;20034;-72